sensor_id;sensor_type;location;lat;lon;timestamp;pressure;altitude;pressure_sealevel;temperature;humidity
38033;BME280;23841;48.524;1.342;2023-05-23T00:00:41;99646.75;;;18.22;58.42
38033;BME280;23841;48.524;1.342;2023-05-23T00:03:06;99645.91;;;18.22;58.55
38033;BME280;23841;48.524;1.342;2023-05-23T00:05:33;99635.16;;;18.22;58.37
38033;BME280;23841;48.524;1.342;2023-05-23T00:07:59;99641.53;;;18.19;58.51
38033;BME280;23841;48.524;1.342;2023-05-23T00:10:25;99632.72;;;18.16;58.69
38033;BME280;23841;48.524;1.342;2023-05-23T00:12:51;99633.56;;;18.18;58.70
38033;BME280;23841;48.524;1.342;2023-05-23T00:15:16;99635.44;;;18.16;58.66
38033;BME280;23841;48.524;1.342;2023-05-23T00:17:42;99634.56;;;18.15;58.51
38033;BME280;23841;48.524;1.342;2023-05-23T00:20:09;99624.66;;;18.16;58.65
38033;BME280;23841;48.524;1.342;2023-05-23T00:22:36;99627.44;;;18.14;58.63
38033;BME280;23841;48.524;1.342;2023-05-23T00:25:05;99622.91;;;18.15;58.46
38033;BME280;23841;48.524;1.342;2023-05-23T00:27:30;99617.63;;;18.13;58.62
38033;BME280;23841;48.524;1.342;2023-05-23T00:29:56;99611.47;;;18.11;58.45
38033;BME280;23841;48.524;1.342;2023-05-23T00:32:21;99618.72;;;18.09;58.70
38033;BME280;23841;48.524;1.342;2023-05-23T00:34:47;99619.59;;;18.10;58.71
38033;BME280;23841;48.524;1.342;2023-05-23T00:37:13;99614.22;;;18.10;58.80
38033;BME280;23841;48.524;1.342;2023-05-23T00:39:39;99610.66;;;18.09;58.82
38033;BME280;23841;48.524;1.342;2023-05-23T00:42:05;99610.72;;;18.07;58.44
38033;BME280;23841;48.524;1.342;2023-05-23T00:44:31;99607.25;;;18.05;58.57
38033;BME280;23841;48.524;1.342;2023-05-23T00:46:57;99610.88;;;18.04;58.76
38033;BME280;23841;48.524;1.342;2023-05-23T00:49:23;99609.94;;;18.05;58.57
38033;BME280;23841;48.524;1.342;2023-05-23T00:51:52;99618.94;;;18.04;58.69
38033;BME280;23841;48.524;1.342;2023-05-23T00:54:22;99612.69;;;18.04;58.65
38033;BME280;23841;48.524;1.342;2023-05-23T00:56:48;99611.81;;;18.03;58.62
38033;BME280;23841;48.524;1.342;2023-05-23T00:59:14;99609.13;;;18.03;58.62
38033;BME280;23841;48.524;1.342;2023-05-23T01:01:40;99606.59;;;18.00;58.70
38033;BME280;23841;48.524;1.342;2023-05-23T01:04:08;99598.69;;;17.97;58.98
38033;BME280;23841;48.524;1.342;2023-05-23T01:06:34;99604.91;;;17.98;58.75
38033;BME280;23841;48.524;1.342;2023-05-23T01:09:01;99598.84;;;17.94;58.64
38033;BME280;23841;48.524;1.342;2023-05-23T01:11:39;99605.94;;;17.95;58.76
38033;BME280;23841;48.524;1.342;2023-05-23T01:14:12;99613.91;;;17.97;58.73
38033;BME280;23841;48.524;1.342;2023-05-23T01:19:43;99612.28;;;17.94;58.59
38033;BME280;23841;48.524;1.342;2023-05-23T01:28:01;99628.63;;;17.88;58.48
38033;BME280;23841;48.524;1.342;2023-05-23T01:30:30;99633.94;;;17.89;58.75
38033;BME280;23841;48.524;1.342;2023-05-23T01:32:57;99626.84;;;17.88;58.75
38033;BME280;23841;48.524;1.342;2023-05-23T01:35:24;99634.09;;;17.86;58.86
38033;BME280;23841;48.524;1.342;2023-05-23T01:37:54;99632.22;;;17.88;58.79
38033;BME280;23841;48.524;1.342;2023-05-23T01:40:22;99634.09;;;17.86;58.78
38033;BME280;23841;48.524;1.342;2023-05-23T01:42:48;99642.22;;;17.85;58.67
38033;BME280;23841;48.524;1.342;2023-05-23T01:45:14;99630.66;;;17.83;58.76
38033;BME280;23841;48.524;1.342;2023-05-23T01:47:41;99631.47;;;17.85;58.73
38033;BME280;23841;48.524;1.342;2023-05-23T01:50:08;99624.41;;;17.82;58.79
38033;BME280;23841;48.524;1.342;2023-05-23T01:52:34;99622.59;;;17.83;58.65
38033;BME280;23841;48.524;1.342;2023-05-23T01:55:02;99633.41;;;17.81;58.56
38033;BME280;23841;48.524;1.342;2023-05-23T01:57:35;99626.25;;;17.82;58.75
38033;BME280;23841;48.524;1.342;2023-05-23T02:00:01;99621.03;;;17.79;59.00
38033;BME280;23841;48.524;1.342;2023-05-23T02:02:26;99617.44;;;17.78;58.72
38033;BME280;23841;48.524;1.342;2023-05-23T02:04:54;99618.34;;;17.79;58.86
38033;BME280;23841;48.524;1.342;2023-05-23T02:07:21;99613.91;;;17.78;58.98
38033;BME280;23841;48.524;1.342;2023-05-23T02:09:48;99618.38;;;17.77;58.71
38033;BME280;23841;48.524;1.342;2023-05-23T02:12:13;99619.41;;;17.74;58.97
38033;BME280;23841;48.524;1.342;2023-05-23T02:14:39;99618.53;;;17.74;58.83
38033;BME280;23841;48.524;1.342;2023-05-23T02:17:09;99623.03;;;17.73;58.92
38033;BME280;23841;48.524;1.342;2023-05-23T02:19:35;99623.03;;;17.73;58.94
38033;BME280;23841;48.524;1.342;2023-05-23T02:22:02;99615.91;;;17.72;59.01
38033;BME280;23841;48.524;1.342;2023-05-23T02:24:27;99614.22;;;17.70;58.87
38033;BME280;23841;48.524;1.342;2023-05-23T02:26:53;99621.34;;;17.71;59.02
38033;BME280;23841;48.524;1.342;2023-05-23T02:29:19;99628.69;;;17.67;58.99
38033;BME280;23841;48.524;1.342;2023-05-23T02:31:45;99620.63;;;17.67;59.01
38033;BME280;23841;48.524;1.342;2023-05-23T02:34:10;99623.38;;;17.66;59.05
38033;BME280;23841;48.524;1.342;2023-05-23T02:36:36;99621.59;;;17.66;59.18
38033;BME280;23841;48.524;1.342;2023-05-23T02:39:04;99618.00;;;17.66;58.97
38033;BME280;23841;48.524;1.342;2023-05-23T02:41:29;99621.69;;;17.63;59.01
38033;BME280;23841;48.524;1.342;2023-05-23T02:43:55;99620.75;;;17.64;58.87
38033;BME280;23841;48.524;1.342;2023-05-23T02:46:21;99624.38;;;17.63;58.84
38033;BME280;23841;48.524;1.342;2023-05-23T02:48:46;99621.06;;;17.58;58.99
38033;BME280;23841;48.524;1.342;2023-05-23T02:51:11;99620.25;;;17.56;59.00
38033;BME280;23841;48.524;1.342;2023-05-23T02:53:38;99623.84;;;17.55;58.75
38033;BME280;23841;48.524;1.342;2023-05-23T02:56:04;99623.84;;;17.55;58.98
38033;BME280;23841;48.524;1.342;2023-05-23T02:58:30;99614.00;;;17.55;59.00
38033;BME280;23841;48.524;1.342;2023-05-23T03:00:56;99608.72;;;17.54;58.94
38033;BME280;23841;48.524;1.342;2023-05-23T03:03:21;99615.00;;;17.53;59.03
38033;BME280;23841;48.524;1.342;2023-05-23T03:05:47;99607.03;;;17.51;58.73
38033;BME280;23841;48.524;1.342;2023-05-23T03:08:12;99607.19;;;17.48;58.82
38033;BME280;23841;48.524;1.342;2023-05-23T03:10:38;99612.53;;;17.48;58.74
38033;BME280;23841;48.524;1.342;2023-05-23T03:13:03;99608.97;;;17.48;58.83
38033;BME280;23841;48.524;1.342;2023-05-23T03:15:29;99603.66;;;17.46;58.67
38033;BME280;23841;48.524;1.342;2023-05-23T03:17:54;99604.56;;;17.47;58.85
38033;BME280;23841;48.524;1.342;2023-05-23T03:20:20;99615.31;;;17.47;58.79
38033;BME280;23841;48.524;1.342;2023-05-23T03:22:45;99621.59;;;17.46;58.71
38033;BME280;23841;48.524;1.342;2023-05-23T03:25:10;99610.88;;;17.46;58.82
38033;BME280;23841;48.524;1.342;2023-05-23T03:27:36;99611.81;;;17.45;58.80
38033;BME280;23841;48.524;1.342;2023-05-23T03:30:03;99611.06;;;17.41;58.81
38033;BME280;23841;48.524;1.342;2023-05-23T03:32:28;99621.09;;;17.37;58.82
38033;BME280;23841;48.524;1.342;2023-05-23T03:34:53;99621.09;;;17.37;58.86
38033;BME280;23841;48.524;1.342;2023-05-23T03:37:19;99632.81;;;17.35;58.87
38033;BME280;23841;48.524;1.342;2023-05-23T03:39:45;99623.97;;;17.33;58.91
38033;BME280;23841;48.524;1.342;2023-05-23T03:42:11;99626.84;;;17.28;58.84
38033;BME280;23841;48.524;1.342;2023-05-23T03:44:37;99626.69;;;17.31;58.93
38033;BME280;23841;48.524;1.342;2023-05-23T03:47:04;99624.03;;;17.31;58.74
38033;BME280;23841;48.524;1.342;2023-05-23T03:49:30;99625.91;;;17.29;58.80
38033;BME280;23841;48.524;1.342;2023-05-23T03:51:55;99627.66;;;17.30;58.82
38033;BME280;23841;48.524;1.342;2023-05-23T03:54:20;99641.22;;;17.27;58.77
38033;BME280;23841;48.524;1.342;2023-05-23T03:56:46;99640.34;;;17.27;58.88
38033;BME280;23841;48.524;1.342;2023-05-23T03:59:11;99637.72;;;17.25;58.86
38033;BME280;23841;48.524;1.342;2023-05-23T04:01:37;99635.91;;;17.26;59.03
38033;BME280;23841;48.524;1.342;2023-05-23T04:04:03;99642.31;;;17.23;58.97
38033;BME280;23841;48.524;1.342;2023-05-23T04:06:29;99645.00;;;17.23;59.00
38033;BME280;23841;48.524;1.342;2023-05-23T04:08:56;99628.19;;;17.18;58.97
38033;BME280;23841;48.524;1.342;2023-05-23T04:11:21;99635.25;;;17.20;59.08
38033;BME280;23841;48.524;1.342;2023-05-23T04:13:47;99646.00;;;17.20;59.03
38033;BME280;23841;48.524;1.342;2023-05-23T04:16:12;99641.56;;;17.19;59.16
38033;BME280;23841;48.524;1.342;2023-05-23T04:18:38;99651.53;;;17.16;59.13
38033;BME280;23841;48.524;1.342;2023-05-23T04:21:04;99651.53;;;17.16;59.25
38033;BME280;23841;48.524;1.342;2023-05-23T04:23:29;99656.97;;;17.14;58.98
38033;BME280;23841;48.524;1.342;2023-05-23T04:25:54;99659.72;;;17.13;59.28
38033;BME280;23841;48.524;1.342;2023-05-23T04:28:22;99665.09;;;17.13;59.00
38033;BME280;23841;48.524;1.342;2023-05-23T04:30:47;99669.69;;;17.11;59.01
38033;BME280;23841;48.524;1.342;2023-05-23T04:33:14;99665.25;;;17.10;59.20
38033;BME280;23841;48.524;1.342;2023-05-23T04:35:39;99677.03;;;17.05;59.25
38033;BME280;23841;48.524;1.342;2023-05-23T04:38:05;99674.22;;;17.09;59.03
38033;BME280;23841;48.524;1.342;2023-05-23T04:40:30;99680.59;;;17.06;59.28
38033;BME280;23841;48.524;1.342;2023-05-23T04:42:56;99673.44;;;17.06;59.12
38033;BME280;23841;48.524;1.342;2023-05-23T04:45:22;99674.34;;;17.05;59.14
38033;BME280;23841;48.524;1.342;2023-05-23T04:47:48;99669.06;;;17.04;59.08
38033;BME280;23841;48.524;1.342;2023-05-23T04:50:13;99671.75;;;17.04;59.20
38033;BME280;23841;48.524;1.342;2023-05-23T04:52:42;99677.19;;;17.02;59.06
38033;BME280;23841;48.524;1.342;2023-05-23T04:55:08;99680.78;;;17.01;59.13
38033;BME280;23841;48.524;1.342;2023-05-23T04:57:34;99684.47;;;16.99;59.04
38033;BME280;23841;48.524;1.342;2023-05-23T04:59:59;99680.09;;;16.96;59.32
38033;BME280;23841;48.524;1.342;2023-05-23T05:02:25;99679.25;;;16.96;58.90
38033;BME280;23841;48.524;1.342;2023-05-23T05:04:51;99676.56;;;16.96;59.16
38033;BME280;23841;48.524;1.342;2023-05-23T05:07:17;99684.69;;;16.94;59.09
38033;BME280;23841;48.524;1.342;2023-05-23T05:09:42;99686.47;;;16.94;59.06
38033;BME280;23841;48.524;1.342;2023-05-23T05:12:08;99685.59;;;16.93;58.99
38033;BME280;23841;48.524;1.342;2023-05-23T05:14:33;99695.56;;;16.91;58.97
38033;BME280;23841;48.524;1.342;2023-05-23T05:16:59;99694.72;;;16.89;59.09
38033;BME280;23841;48.524;1.342;2023-05-23T05:19:26;99697.41;;;16.89;59.02
38033;BME280;23841;48.524;1.342;2023-05-23T05:21:52;99694.72;;;16.89;58.93
38033;BME280;23841;48.524;1.342;2023-05-23T05:24:17;99692.94;;;16.88;59.09
38033;BME280;23841;48.524;1.342;2023-05-23T05:26:45;99698.31;;;16.88;59.04
38033;BME280;23841;48.524;1.342;2023-05-23T05:29:11;99692.94;;;16.88;59.02
38033;BME280;23841;48.524;1.342;2023-05-23T05:31:37;99697.44;;;16.87;58.98
38033;BME280;23841;48.524;1.342;2023-05-23T05:34:03;99693.06;;;16.85;58.92
38033;BME280;23841;48.524;1.342;2023-05-23T05:36:28;99701.13;;;16.85;59.10
38033;BME280;23841;48.524;1.342;2023-05-23T05:38:53;99699.31;;;16.85;59.02
38033;BME280;23841;48.524;1.342;2023-05-23T05:41:19;99694.00;;;16.84;58.96
38033;BME280;23841;48.524;1.342;2023-05-23T05:43:46;99696.81;;;16.81;58.93
38033;BME280;23841;48.524;1.342;2023-05-23T05:46:11;99696.88;;;16.79;59.24
38033;BME280;23841;48.524;1.342;2023-05-23T05:48:37;99704.00;;;16.80;59.07
38033;BME280;23841;48.524;1.342;2023-05-23T05:51:02;99705.78;;;16.80;59.10
38033;BME280;23841;48.524;1.342;2023-05-23T05:53:28;99703.09;;;16.80;59.16
38033;BME280;23841;48.524;1.342;2023-05-23T05:55:53;99712.03;;;16.80;59.18
38033;BME280;23841;48.524;1.342;2023-05-23T05:58:19;99716.53;;;16.80;59.15
38033;BME280;23841;48.524;1.342;2023-05-23T06:00:45;99719.19;;;16.80;59.16
38033;BME280;23841;48.524;1.342;2023-05-23T06:03:10;99713.91;;;16.78;59.27
38033;BME280;23841;48.524;1.342;2023-05-23T06:05:36;99712.19;;;16.77;59.04
38033;BME280;23841;48.524;1.342;2023-05-23T06:08:03;99719.41;;;16.75;59.26
38033;BME280;23841;48.524;1.342;2023-05-23T06:10:29;99723.78;;;16.78;59.22
38033;BME280;23841;48.524;1.342;2023-05-23T06:12:55;99709.50;;;16.77;59.16
38033;BME280;23841;48.524;1.342;2023-05-23T06:15:20;99711.28;;;16.77;59.25
38033;BME280;23841;48.524;1.342;2023-05-23T06:17:45;99712.22;;;16.76;59.19
38033;BME280;23841;48.524;1.342;2023-05-23T06:20:11;99712.19;;;16.77;59.43
38033;BME280;23841;48.524;1.342;2023-05-23T06:22:36;99711.28;;;16.77;59.19
38033;BME280;23841;48.524;1.342;2023-05-23T06:25:02;99710.50;;;16.75;59.24
38033;BME280;23841;48.524;1.342;2023-05-23T06:27:27;99714.97;;;16.74;59.37
38033;BME280;23841;48.524;1.342;2023-05-23T06:29:53;99716.78;;;16.73;59.42
38033;BME280;23841;48.524;1.342;2023-05-23T06:32:18;99724.91;;;16.72;59.38
38033;BME280;23841;48.524;1.342;2023-05-23T06:34:44;99719.59;;;16.70;59.40
38033;BME280;23841;48.524;1.342;2023-05-23T06:37:09;99733.00;;;16.70;59.32
38033;BME280;23841;48.524;1.342;2023-05-23T06:39:34;99726.75;;;16.70;59.56
38033;BME280;23841;48.524;1.342;2023-05-23T06:42:00;99732.19;;;16.68;59.40
38033;BME280;23841;48.524;1.342;2023-05-23T06:44:26;99739.22;;;16.71;59.27
38033;BME280;23841;48.524;1.342;2023-05-23T06:46:51;99737.44;;;16.71;59.44
38033;BME280;23841;48.524;1.342;2023-05-23T06:49:22;99754.34;;;16.73;59.48
38033;BME280;23841;48.524;1.342;2023-05-23T06:51:48;99746.34;;;16.72;59.46
38033;BME280;23841;48.524;1.342;2023-05-23T06:54:13;99748.22;;;16.70;59.52
38033;BME280;23841;48.524;1.342;2023-05-23T06:56:38;99751.84;;;16.69;59.70
38033;BME280;23841;48.524;1.342;2023-05-23T06:59:04;99750.09;;;16.68;59.46
38033;BME280;23841;48.524;1.342;2023-05-23T07:01:29;99750.97;;;16.68;59.62
38033;BME280;23841;48.524;1.342;2023-05-23T07:03:55;99749.16;;;16.69;59.60
38033;BME280;23841;48.524;1.342;2023-05-23T07:06:20;99762.44;;;16.72;59.60
38033;BME280;23841;48.524;1.342;2023-05-23T07:08:46;99765.19;;;16.70;59.58
38033;BME280;23841;48.524;1.342;2023-05-23T07:11:11;99767.06;;;16.68;59.78
38033;BME280;23841;48.524;1.342;2023-05-23T07:13:37;99767.06;;;16.68;59.76
38033;BME280;23841;48.524;1.342;2023-05-23T07:16:02;99768.81;;;16.69;59.77
38033;BME280;23841;48.524;1.342;2023-05-23T07:18:28;99774.16;;;16.69;59.85
38033;BME280;23841;48.524;1.342;2023-05-23T07:20:53;99769.72;;;16.68;59.60
38033;BME280;23841;48.524;1.342;2023-05-23T07:23:19;99772.41;;;16.68;59.95
38033;BME280;23841;48.524;1.342;2023-05-23T07:25:44;99776.06;;;16.67;59.96
38033;BME280;23841;48.524;1.342;2023-05-23T07:28:11;99775.16;;;16.67;59.92
38033;BME280;23841;48.524;1.342;2023-05-23T07:30:36;99783.09;;;16.70;60.05
38033;BME280;23841;48.524;1.342;2023-05-23T07:33:02;99787.59;;;16.69;59.94
38033;BME280;23841;48.524;1.342;2023-05-23T07:35:27;99790.28;;;16.69;60.02
38033;BME280;23841;48.524;1.342;2023-05-23T07:37:53;99785.81;;;16.68;60.09
38033;BME280;23841;48.524;1.342;2023-05-23T07:40:23;99786.78;;;16.67;60.00
38033;BME280;23841;48.524;1.342;2023-05-23T07:42:48;99781.44;;;16.66;59.88
38033;BME280;23841;48.524;1.342;2023-05-23T07:45:14;99781.44;;;16.67;60.05
38033;BME280;23841;48.524;1.342;2023-05-23T07:47:40;99784.09;;;16.67;60.10
38033;BME280;23841;48.524;1.342;2023-05-23T07:50:06;99782.34;;;16.66;60.07
38033;BME280;23841;48.524;1.342;2023-05-23T07:52:32;99790.41;;;16.66;60.18
38033;BME280;23841;48.524;1.342;2023-05-23T07:54:58;99780.72;;;16.62;60.13
38033;BME280;23841;48.524;1.342;2023-05-23T07:57:24;99791.31;;;16.65;60.20
38033;BME280;23841;48.524;1.342;2023-05-23T07:59:50;99787.72;;;16.66;60.11
38033;BME280;23841;48.524;1.342;2023-05-23T08:02:16;99795.75;;;16.66;60.17
38033;BME280;23841;48.524;1.342;2023-05-23T08:04:42;99790.41;;;16.66;60.26
38033;BME280;23841;48.524;1.342;2023-05-23T08:07:07;99799.31;;;16.67;60.27
38033;BME280;23841;48.524;1.342;2023-05-23T08:09:34;99803.09;;;16.61;60.38
38033;BME280;23841;48.524;1.342;2023-05-23T08:12:00;99809.22;;;16.65;60.45
38033;BME280;23841;48.524;1.342;2023-05-23T08:14:25;99808.34;;;16.64;60.42
38033;BME280;23841;48.524;1.342;2023-05-23T08:16:50;99810.97;;;16.66;60.48
38033;BME280;23841;48.524;1.342;2023-05-23T08:19:16;99821.69;;;16.66;60.31
38033;BME280;23841;48.524;1.342;2023-05-23T08:21:41;99813.69;;;16.64;60.40
38033;BME280;23841;48.524;1.342;2023-05-23T08:24:07;99810.09;;;16.65;60.43
38033;BME280;23841;48.524;1.342;2023-05-23T08:26:33;99811.84;;;16.66;60.47
38033;BME280;23841;48.524;1.342;2023-05-23T08:29:01;99814.53;;;16.66;60.49
38033;BME280;23841;48.524;1.342;2023-05-23T08:31:27;99812.84;;;16.64;60.32
38033;BME280;23841;48.524;1.342;2023-05-23T08:33:53;99818.09;;;16.67;60.57
38033;BME280;23841;48.524;1.342;2023-05-23T08:36:18;99811.97;;;16.63;60.75
38033;BME280;23841;48.524;1.342;2023-05-23T08:38:43;99820.81;;;16.65;60.84
38033;BME280;23841;48.524;1.342;2023-05-23T08:41:15;99817.16;;;16.68;60.79
38033;BME280;23841;48.524;1.342;2023-05-23T08:43:43;99823.44;;;16.67;60.94
38033;BME280;23841;48.524;1.342;2023-05-23T08:46:08;99822.66;;;16.65;60.79
38033;BME280;23841;48.524;1.342;2023-05-23T08:48:37;99828.81;;;16.67;60.91
38033;BME280;23841;48.524;1.342;2023-05-23T08:51:03;99835.09;;;16.66;61.05
38033;BME280;23841;48.524;1.342;2023-05-23T08:53:30;99832.47;;;16.64;61.04
38033;BME280;23841;48.524;1.342;2023-05-23T08:55:57;99826.25;;;16.64;61.11
38033;BME280;23841;48.524;1.342;2023-05-23T08:58:28;99820.94;;;16.62;60.87
38033;BME280;23841;48.524;1.342;2023-05-23T09:00:54;99826.31;;;16.62;61.01
38033;BME280;23841;48.524;1.342;2023-05-23T09:03:20;99829.00;;;16.62;61.06
38033;BME280;23841;48.524;1.342;2023-05-23T09:05:48;99829.84;;;16.63;61.06
38033;BME280;23841;48.524;1.342;2023-05-23T09:08:15;99825.41;;;16.62;61.05
38033;BME280;23841;48.524;1.342;2023-05-23T09:10:41;99833.44;;;16.63;61.01
38033;BME280;23841;48.524;1.342;2023-05-23T09:13:07;99837.03;;;16.62;61.17
38033;BME280;23841;48.524;1.342;2023-05-23T09:15:34;99834.53;;;16.58;61.39
38033;BME280;23841;48.524;1.342;2023-05-23T09:17:59;99836.13;;;16.63;61.24
38033;BME280;23841;48.524;1.342;2023-05-23T09:20:28;99835.22;;;16.63;61.55
38033;BME280;23841;48.524;1.342;2023-05-23T09:22:54;99831.69;;;16.62;61.62
38033;BME280;23841;48.524;1.342;2023-05-23T09:25:20;99839.72;;;16.62;61.48
38033;BME280;23841;48.524;1.342;2023-05-23T09:27:45;99842.41;;;16.62;61.58
38033;BME280;23841;48.524;1.342;2023-05-23T09:30:12;99837.97;;;16.61;61.31
38033;BME280;23841;48.524;1.342;2023-05-23T09:32:38;99841.50;;;16.62;61.68
38033;BME280;23841;48.524;1.342;2023-05-23T09:35:05;99835.28;;;16.61;61.84
38033;BME280;23841;48.524;1.342;2023-05-23T09:37:38;99835.28;;;16.61;61.71
38033;BME280;23841;48.524;1.342;2023-05-23T09:40:09;99837.03;;;16.62;61.95
38033;BME280;23841;48.524;1.342;2023-05-23T09:42:40;99840.59;;;16.63;61.97
38033;BME280;23841;48.524;1.342;2023-05-23T09:45:07;99844.19;;;16.62;61.94
38033;BME280;23841;48.524;1.342;2023-05-23T09:47:32;99847.78;;;16.62;62.08
38033;BME280;23841;48.524;1.342;2023-05-23T09:49:57;99844.25;;;16.60;62.05
38033;BME280;23841;48.524;1.342;2023-05-23T09:52:23;99852.25;;;16.62;61.79
38033;BME280;23841;48.524;1.342;2023-05-23T09:54:48;99854.06;;;16.61;62.01
38033;BME280;23841;48.524;1.342;2023-05-23T09:57:14;99851.31;;;16.63;61.98
38033;BME280;23841;48.524;1.342;2023-05-23T09:59:47;99858.50;;;16.62;61.75
38033;BME280;23841;48.524;1.342;2023-05-23T10:02:15;99860.28;;;16.62;62.08
38033;BME280;23841;48.524;1.342;2023-05-23T10:04:42;99856.75;;;16.61;62.08
38033;BME280;23841;48.524;1.342;2023-05-23T10:07:17;99859.38;;;16.63;62.30
38033;BME280;23841;48.524;1.342;2023-05-23T10:09:53;99856.75;;;16.61;62.18
38033;BME280;23841;48.524;1.342;2023-05-23T10:15:01;99849.63;;;16.60;62.36
38033;BME280;23841;48.524;1.342;2023-05-23T10:17:40;99850.50;;;16.61;62.37
38033;BME280;23841;48.524;1.342;2023-05-23T10:20:13;99861.19;;;16.62;62.17
38033;BME280;23841;48.524;1.342;2023-05-23T10:22:41;99858.50;;;16.62;62.06
38033;BME280;23841;48.524;1.342;2023-05-23T10:25:07;99863.09;;;16.59;62.05
38033;BME280;23841;48.524;1.342;2023-05-23T10:27:36;99862.97;;;16.62;62.37
38033;BME280;23841;48.524;1.342;2023-05-23T10:30:02;99862.09;;;16.61;62.46
38033;BME280;23841;48.524;1.342;2023-05-23T10:32:28;99850.50;;;16.61;62.60
38033;BME280;23841;48.524;1.342;2023-05-23T10:35:09;99858.56;;;16.61;62.62
38033;BME280;23841;48.524;1.342;2023-05-23T10:37:47;99846.00;;;16.61;62.47
38033;BME280;23841;48.524;1.342;2023-05-23T10:40:26;99844.25;;;16.60;62.58
38033;BME280;23841;48.524;1.342;2023-05-23T10:45:28;99848.81;;;16.58;62.56
38033;BME280;23841;48.524;1.342;2023-05-23T10:47:54;99857.66;;;16.60;62.77
38033;BME280;23841;48.524;1.342;2023-05-23T10:50:33;99851.38;;;16.61;62.66
38033;BME280;23841;48.524;1.342;2023-05-23T10:53:00;99854.97;;;16.60;62.80
38033;BME280;23841;48.524;1.342;2023-05-23T10:55:31;99852.31;;;16.60;62.63
38033;BME280;23841;48.524;1.342;2023-05-23T10:58:15;99858.50;;;16.62;62.61
38033;BME280;23841;48.524;1.342;2023-05-23T11:00:54;99860.34;;;16.60;62.75
38033;BME280;23841;48.524;1.342;2023-05-23T11:05:58;99849.63;;;16.60;62.82
38033;BME280;23841;48.524;1.342;2023-05-23T11:08:24;99853.19;;;16.61;62.95
38033;BME280;23841;48.524;1.342;2023-05-23T11:11:00;99850.50;;;16.61;62.97
38033;BME280;23841;48.524;1.342;2023-05-23T11:16:28;99853.34;;;16.56;63.19
38033;BME280;23841;48.524;1.342;2023-05-23T11:21:43;99847.97;;;16.58;62.98
38033;BME280;23841;48.524;1.342;2023-05-23T11:24:09;99849.63;;;16.60;63.15
38033;BME280;23841;48.524;1.342;2023-05-23T11:26:35;99851.38;;;16.61;63.09
38033;BME280;23841;48.524;1.342;2023-05-23T11:29:00;99847.91;;;16.59;62.84
38033;BME280;23841;48.524;1.342;2023-05-23T11:31:28;99852.31;;;16.60;62.68
38033;BME280;23841;48.524;1.342;2023-05-23T11:33:54;99858.56;;;16.61;63.23
38033;BME280;23841;48.524;1.342;2023-05-23T11:36:22;99848.75;;;16.60;63.02
38033;BME280;23841;48.524;1.342;2023-05-23T11:38:51;99844.25;;;16.60;63.20
38033;BME280;23841;48.524;1.342;2023-05-23T11:41:17;99855.94;;;16.59;63.22
38033;BME280;23841;48.524;1.342;2023-05-23T11:43:52;99847.91;;;16.59;63.21
38033;BME280;23841;48.524;1.342;2023-05-23T11:46:18;99850.50;;;16.61;63.27
38033;BME280;23841;48.524;1.342;2023-05-23T11:48:45;99852.50;;;16.55;63.30
38033;BME280;23841;48.524;1.342;2023-05-23T11:51:11;99859.59;;;16.57;63.43
38033;BME280;23841;48.524;1.342;2023-05-23T11:53:37;99853.34;;;16.56;63.05
38033;BME280;23841;48.524;1.342;2023-05-23T11:56:02;99856.88;;;16.58;63.41
38033;BME280;23841;48.524;1.342;2023-05-23T11:58:33;99856.94;;;16.57;63.10
38033;BME280;23841;48.524;1.342;2023-05-23T12:01:07;99862.22;;;16.58;62.90
38033;BME280;23841;48.524;1.342;2023-05-23T12:03:33;99859.59;;;16.57;63.18
38033;BME280;23841;48.524;1.342;2023-05-23T12:05:59;99855.94;;;16.59;63.13
38033;BME280;23841;48.524;1.342;2023-05-23T12:08:26;99856.88;;;16.58;63.25
38033;BME280;23841;48.524;1.342;2023-05-23T12:10:58;99862.22;;;16.58;63.22
38033;BME280;23841;48.524;1.342;2023-05-23T12:13:26;99868.47;;;16.59;62.99
38033;BME280;23841;48.524;1.342;2023-05-23T12:15:56;99866.66;;;16.59;63.17
38033;BME280;23841;48.524;1.342;2023-05-23T12:18:22;99864.91;;;16.58;63.20
38033;BME280;23841;48.524;1.342;2023-05-23T12:20:49;99869.41;;;16.58;63.15
38033;BME280;23841;48.524;1.342;2023-05-23T12:23:22;99867.59;;;16.58;63.19
38033;BME280;23841;48.524;1.342;2023-05-23T12:25:54;99865.72;;;16.60;63.16
38033;BME280;23841;48.524;1.342;2023-05-23T12:28:32;99862.22;;;16.58;63.17
38033;BME280;23841;48.524;1.342;2023-05-23T12:30:58;99856.03;;;16.56;63.14
38033;BME280;23841;48.524;1.342;2023-05-23T12:33:24;99863.88;;;16.62;63.19
38033;BME280;23841;48.524;1.342;2023-05-23T12:35:49;99859.44;;;16.61;63.01
38033;BME280;23841;48.524;1.342;2023-05-23T12:38:16;99858.50;;;16.62;63.28
38033;BME280;23841;48.524;1.342;2023-05-23T12:40:42;99851.38;;;16.61;63.32
38033;BME280;23841;48.524;1.342;2023-05-23T12:43:08;99854.91;;;16.63;63.15
38033;BME280;23841;48.524;1.342;2023-05-23T12:45:35;99844.19;;;16.62;62.86
38033;BME280;23841;48.524;1.342;2023-05-23T12:48:06;99840.53;;;16.64;63.02
38033;BME280;23841;48.524;1.342;2023-05-23T12:50:33;99846.78;;;16.65;62.80
38033;BME280;23841;48.524;1.342;2023-05-23T12:52:58;99841.47;;;16.63;62.92
38033;BME280;23841;48.524;1.342;2023-05-23T12:55:27;99848.50;;;16.66;62.76
38033;BME280;23841;48.524;1.342;2023-05-23T12:57:53;99836.91;;;16.65;62.68
38033;BME280;23841;48.524;1.342;2023-05-23T13:00:20;99836.13;;;16.63;62.67
38033;BME280;23841;48.524;1.342;2023-05-23T13:02:45;99843.13;;;16.67;62.46
38033;BME280;23841;48.524;1.342;2023-05-23T13:05:11;99841.28;;;16.68;62.38
38033;BME280;23841;48.524;1.342;2023-05-23T13:07:36;99839.47;;;16.68;62.57
38033;BME280;23841;48.524;1.342;2023-05-23T13:10:02;99844.03;;;16.66;62.22
38033;BME280;23841;48.524;1.342;2023-05-23T13:12:27;99840.38;;;16.69;62.10
38033;BME280;23841;48.524;1.342;2023-05-23T13:14:53;99834.13;;;16.68;62.34
38033;BME280;23841;48.524;1.342;2023-05-23T13:17:19;99836.78;;;16.68;62.12
38033;BME280;23841;48.524;1.342;2023-05-23T13:19:45;99841.28;;;16.68;62.47